Portada
METAR-TAF:

METAR-TAF

Aeropuertos :

Aeropuerto de Batman

Batman, Turquía

latitud: 37-52N, longitud: 041-10E, altitud: 540 m

Observación

El informe se hizo hace 41 minutos, a las 22:20 UTC
Viento 5 kt del norte-noreste
Temperatura 11°C
Humedad 94%
Presión 1011 hPa
Visibilidad 10 km o más
sin nubes por debajo de 1500 m y sin presencia de cumulonimbus.

METAR: LTCJ 172220Z 03005KT CAVOK 11/10 Q1011 RMK RWY20 34003KT SKC

Hora: 02:01 (23:01 UTC)

Pronóstico

El informe se hizo hace 6 horas y 21 minutos, a las 16:40 UTC
Pronóstico válido del 17 a las 18 UTC al 18 a las 18 UTC
Viento 2 kt con dirección variable
Visibilidad 10 km o más
sin nubes por debajo de 1500 m y sin presencia de cumulonimbus.
Evolucionando progresivamente
del 18 a las 05 UTC al 18 a las 07 UTC
Escasas nubes a una altura de 4000 ft

TAF: LTCJ 171640Z 1718/1818 VRB02KT CAVOK BECMG 1805/1807 FEW040

Observaciones y pronósticos meteorológicos de más de 4000 aeropuertos (mensajes METAR y TAF).

Los puntos amarillos y rojos representan las estaciones disponibles.

Ponga el ratón en el punto deseado para ver el nombre de la estación.

Haga clic para ver las observaciones y los pronósticos meteorológicos.

Para cambiar el mapa : haga clic en los botones verdes con una cruz de color negro para hacer un zoom, en el botón verde con un guión para alejar o en las flechas verdes para mapas adyacentes.


METAR-TAF: